François Lagadeuc

François Lagadeuc

Statistiques 2026

  • Courses courues : 319
  • Nb de victoires : 46
  • Nb de places : 87
  • Écart gagnant : 13
  • Réussite à la gagne : 14%
  • Réussite à la place : 27%
Musique : 5m 4a 0m 0a 0a Da Da Da 5a 2a 3a 2a 8a 1a 8a 1a 5m Da
DateRangCatégorieAlloc.Dist.HippodromeChevalRed. KmSpé.
01/06/23 D Trot 20 000€ 2 700m Graignes Kansas Style Attelé
02/06/23 6 Trot 59 000€ 2 700m Vincennes Disco d'Occagnes 1'13"2 Attelé lire

Après avoir figuré au sein du peloton, a conclu fort honorablement.

02/06/23 3 Trot 75 000€ 2 850m Vincennes Equinoxe Jiel 1'13"1 Attelé lire

Après avoir figuré au sein du peloton, a progressé dans le dernier tournant, soutenant bien son effort jusqu'au bout.

02/06/23 1 Trot 53 000€ 2 700m Vincennes Charmy Charly As 1'13"2 Attelé
02/06/23 8 Trot 59 000€ 2 850m Vincennes Fan de Vincennes 1'14"0 Attelé
04/06/23 4 Trot 13 000€ 2 650m Alencon Kaline des Iles Attelé
04/06/23 D Trot 13 000€ 2 650m Alencon Kiss Me du Livet Attelé
04/06/23 D Trot 13 000€ 2 675m Alencon Jadore des Racques Attelé
04/06/23 D Trot 13 000€ 2 675m Alencon Julius du Theil Attelé
04/06/23 1 Trot 14 000€ 2 650m Alencon Kaleo du Bellay TNC Attelé
04/06/23 5 Trot 27 000€ 2 675m Alencon Galon de Vire Attelé
06/06/23 2 Trot 17 500€ 2 850m Maure De Bretagne Kante de Senoville 1'16"8 Attelé
06/06/23 D Trot 19 500€ 2 850m Maure De Bretagne Jaguar d'hermes Attelé
06/06/23 2 Trot 23 000€ 2 850m Maure De Bretagne Iggy du Loisir 1'14"0 Attelé
06/06/23 6 Trot 23 000€ 2 875m Maure De Bretagne Goliath de Lair 1'15"4 Attelé
06/06/23 2 Trot 26 000€ 2 850m Maure De Bretagne Ganovo 1'15"3 Attelé
08/06/23 2 Trot 21 000€ 2 200m Caen Klassica Desbois 1'15"8 Attelé
09/06/23 1 Trot 68 000€ 2 850m Vincennes Gibus 1'13"5 Attelé lire

Rapidement à la pointe du combat, n'a jamais été approché pour finir.

09/06/23 0 Trot 59 000€ 2 100m Vincennes Endian de Banville Attelé lire

Après avoir figuré en épaisseur, a nettement faibli dans la phase finale.

09/06/23 2 Trot 46 000€ 2 700m Vincennes Italiano Di Pao 1'13"5 Attelé lire

Très vite à la pointe du combat, n'a pu s'opposer au lauréat dans les cinquante derniers mètres.

09/06/23 5 Trot 70 000€ 2 700m Vincennes Khal's Fella 1'14"1 Attelé
09/06/23 7 Trot 46 000€ 2 175m Vincennes Jazzy Fligny 1'13"5 Attelé
12/06/23 5 Trot 21 000€ 2 200m Caen Joyce d'yvi 1'14"8 Attelé
12/06/23 0 Trot 27 000€ 2 200m Caen Graal de l'Extreme Attelé lire

Après avoir attendu en retrait, a conclu correctement.

12/06/23 6 Trot 24 000€ 2 200m Caen Illegitime Prince 1'13"6 Attelé
13/06/23 4 Trot 40 000€ 2 200m Vincennes Katarina d'Amour 1'15"6 Attelé
14/06/23 8 Trot 21 000€ 2 800m Argentan Kira de Cahot 1'18"9 Attelé
14/06/23 D Trot 21 000€ 2 800m Argentan Jamaique Dairpet Attelé
14/06/23 3 Trot 24 000€ 2 800m Argentan Icone Delo 1'15"9 Attelé
15/06/23 D Trot 27 000€ 2 850m Laval Hurricane Wind Attelé
15/06/23 3 Trot 31 000€ 2 850m Laval Hyper Fast 1'14"0 Attelé
15/06/23 D Trot 24 000€ 2 850m Laval In Your Eyes Attelé
15/06/23 4 Trot 24 000€ 2 850m Laval Isa du Pressoir 1'15"2 Attelé
15/06/23 D Trot 21 000€ 2 850m Laval Jupiter Turgot Attelé
15/06/23 3 Trot 21 000€ 2 850m Laval Jocaste Dairpet 1'14"9 Attelé
16/06/23 2 Trot 46 000€ 2 700m Vincennes Baldur 1'13"0 Attelé lire

Après avoir attendu en retrait, a progressé dans la montée, soutenant assez bien son effort jusqu'au bout.

16/06/23 6 Trot 68 000€ 2 700m Vincennes Express de l'Iton 1'13"0 Attelé lire

Après avoir attendu en retrait, a comblé du terrain tout au long de la phase finale.

16/06/23 3 Trot 46 000€ 2 100m Vincennes Giant Design 1'11"4 Attelé
16/06/23 8 Trot 40 000€ 2 700m Vincennes Jingle Lover 1'13"8 Attelé
17/06/23 7 Trot 35 000€ 2 150m Enghien Soisy Jumbo de Ja Yo 1'14"1 Attelé
17/06/23 6 Trot 90 000€ 2 150m Enghien Soisy Equinoxe Jiel 1'13"5 Attelé lire

Rapidement fautif, a longtemps trotté en retrait avant de bien terminer.

17/06/23 8 Trot 60 000€ 2 875m Enghien Soisy Ideal Green 1'14"0 Attelé lire

Très vite à la pointe du combat, a nettement marqué le pas dans la phase finale.

17/06/23 9 Trot 62 000€ 2 875m Enghien Soisy Joli Cheri 1'15"6 Attelé
17/06/23 5 Trot 59 000€ 2 900m Enghien Soisy Disco d'Occagnes 1'13"4 Attelé lire

Longtemps en retrait, a conclu fort honorablement.

18/06/23 1 Trot 12 000€ 2 700m Avranches Kungfu d'Ourville TNC Attelé
18/06/23 1 Trot 13 000€ 2 725m Avranches Jetsetter Celo TNC Attelé
18/06/23 1 Trot 13 000€ 2 700m Avranches Jambalaya TNC Attelé
18/06/23 5 Trot 12 000€ 2 700m Avranches Kya d'Erable Attelé
18/06/23 D Trot 12 000€ 2 700m Avranches Kristale d'Erable Attelé
18/06/23 0 Trot 18 000€ 2 725m Avranches Gentil Coco Attelé